sensor_id;sensor_type;location;lat;lon;timestamp;P1;P2;P0
55043;PMS5003;54902;50.420;18.854;2023-05-07T00:00:04;12;10;7
55043;PMS5003;54902;50.420;18.854;2023-05-07T00:00:38;12;10;7
55043;PMS5003;54902;50.420;18.854;2023-05-07T00:01:10;12;10;7
55043;PMS5003;54902;50.420;18.854;2023-05-07T00:01:41;12;10;7
55043;PMS5003;54902;50.420;18.854;2023-05-07T00:02:12;12;10;7
55043;PMS5003;54902;50.420;18.854;2023-05-07T00:02:45;12;10;7
55043;PMS5003;54902;50.420;18.854;2023-05-07T00:03:16;12;10;7
55043;PMS5003;54902;50.420;18.854;2023-05-07T00:03:49;11;10;7
55043;PMS5003;54902;50.420;18.854;2023-05-07T00:04:20;9;8;6
55043;PMS5003;54902;50.420;18.854;2023-05-07T00:04:51;9;8;6
55043;PMS5003;54902;50.420;18.854;2023-05-07T00:05:22;9;8;6
55043;PMS5003;54902;50.420;18.854;2023-05-07T00:05:53;9;8;6
55043;PMS5003;54902;50.420;18.854;2023-05-07T00:06:24;9;8;6
55043;PMS5003;54902;50.420;18.854;2023-05-07T00:06:58;9;8;6
55043;PMS5003;54902;50.420;18.854;2023-05-07T00:07:30;9;8;6
55043;PMS5003;54902;50.420;18.854;2023-05-07T00:08:01;12;11;8
55043;PMS5003;54902;50.420;18.854;2023-05-07T00:08:32;12;11;8
55043;PMS5003;54902;50.420;18.854;2023-05-07T00:09:03;12;11;8
55043;PMS5003;54902;50.420;18.854;2023-05-07T00:09:35;14;14;8
55043;PMS5003;54902;50.420;18.854;2023-05-07T00:10:06;14;14;8
55043;PMS5003;54902;50.420;18.854;2023-05-07T00:10:38;14;14;8
55043;PMS5003;54902;50.420;18.854;2023-05-07T00:11:09;14;14;8
55043;PMS5003;54902;50.420;18.854;2023-05-07T00:11:40;14;14;8
55043;PMS5003;54902;50.420;18.854;2023-05-07T00:12:11;14;14;8
55043;PMS5003;54902;50.420;18.854;2023-05-07T00:12:42;14;14;8
55043;PMS5003;54902;50.420;18.854;2023-05-07T00:13:13;14;14;8
55043;PMS5003;54902;50.420;18.854;2023-05-07T00:13:44;14;14;8
55043;PMS5003;54902;50.420;18.854;2023-05-07T00:14:15;14;14;8
55043;PMS5003;54902;50.420;18.854;2023-05-07T00:14:46;19;19;11
55043;PMS5003;54902;50.420;18.854;2023-05-07T00:15:17;19;19;11
55043;PMS5003;54902;50.420;18.854;2023-05-07T00:15:48;19;19;11
55043;PMS5003;54902;50.420;18.854;2023-05-07T00:16:19;19;19;11
55043;PMS5003;54902;50.420;18.854;2023-05-07T00:16:50;19;19;11
55043;PMS5003;54902;50.420;18.854;2023-05-07T00:17:21;19;19;11
55043;PMS5003;54902;50.420;18.854;2023-05-07T00:17:51;14;14;9
55043;PMS5003;54902;50.420;18.854;2023-05-07T00:18:22;14;14;9
55043;PMS5003;54902;50.420;18.854;2023-05-07T00:18:53;14;14;9
55043;PMS5003;54902;50.420;18.854;2023-05-07T00:19:24;14;14;9
55043;PMS5003;54902;50.420;18.854;2023-05-07T00:19:55;14;14;12
55043;PMS5003;54902;50.420;18.854;2023-05-07T00:20:26;14;14;12
55043;PMS5003;54902;50.420;18.854;2023-05-07T00:20:57;14;14;12
55043;PMS5003;54902;50.420;18.854;2023-05-07T00:21:28;14;14;12
55043;PMS5003;54902;50.420;18.854;2023-05-07T00:22:00;14;14;12
55043;PMS5003;54902;50.420;18.854;2023-05-07T00:22:31;14;14;12
55043;PMS5003;54902;50.420;18.854;2023-05-07T00:23:02;14;14;12
55043;PMS5003;54902;50.420;18.854;2023-05-07T00:23:33;14;14;12
55043;PMS5003;54902;50.420;18.854;2023-05-07T00:24:05;14;14;12
55043;PMS5003;54902;50.420;18.854;2023-05-07T00:24:35;14;14;12
55043;PMS5003;54902;50.420;18.854;2023-05-07T00:25:07;17;17;14
55043;PMS5003;54902;50.420;18.854;2023-05-07T00:25:38;17;17;14
55043;PMS5003;54902;50.420;18.854;2023-05-07T00:26:09;17;17;14
55043;PMS5003;54902;50.420;18.854;2023-05-07T00:26:40;17;17;14
55043;PMS5003;54902;50.420;18.854;2023-05-07T00:27:11;17;17;14
55043;PMS5003;54902;50.420;18.854;2023-05-07T00:27:42;17;17;14
55043;PMS5003;54902;50.420;18.854;2023-05-07T00:28:13;17;17;14
55043;PMS5003;54902;50.420;18.854;2023-05-07T00:28:44;17;17;14
55043;PMS5003;54902;50.420;18.854;2023-05-07T00:29:15;17;17;14
55043;PMS5003;54902;50.420;18.854;2023-05-07T00:29:46;17;17;14
55043;PMS5003;54902;50.420;18.854;2023-05-07T00:30:17;17;17;14
55043;PMS5003;54902;50.420;18.854;2023-05-07T00:30:48;17;17;14
55043;PMS5003;54902;50.420;18.854;2023-05-07T00:31:19;17;17;14
55043;PMS5003;54902;50.420;18.854;2023-05-07T00:31:50;17;17;14
55043;PMS5003;54902;50.420;18.854;2023-05-07T00:32:21;17;17;14
55043;PMS5003;54902;50.420;18.854;2023-05-07T00:32:52;17;17;14
55043;PMS5003;54902;50.420;18.854;2023-05-07T00:33:23;17;17;14
55043;PMS5003;54902;50.420;18.854;2023-05-07T00:33:54;17;17;14
55043;PMS5003;54902;50.420;18.854;2023-05-07T00:34:25;17;17;14
55043;PMS5003;54902;50.420;18.854;2023-05-07T00:34:56;17;17;14
55043;PMS5003;54902;50.420;18.854;2023-05-07T00:35:29;17;17;14
55043;PMS5003;54902;50.420;18.854;2023-05-07T00:36:00;4;4;2
55043;PMS5003;54902;50.420;18.854;2023-05-07T00:36:32;4;4;2
55043;PMS5003;54902;50.420;18.854;2023-05-07T00:37:03;4;4;2
55043;PMS5003;54902;50.420;18.854;2023-05-07T00:37:34;4;4;2
55043;PMS5003;54902;50.420;18.854;2023-05-07T00:38:04;4;4;2
55043;PMS5003;54902;50.420;18.854;2023-05-07T00:38:35;4;4;2
55043;PMS5003;54902;50.420;18.854;2023-05-07T00:39:06;4;4;2
55043;PMS5003;54902;50.420;18.854;2023-05-07T00:39:37;4;4;2
55043;PMS5003;54902;50.420;18.854;2023-05-07T00:40:08;4;4;2
55043;PMS5003;54902;50.420;18.854;2023-05-07T00:40:39;7;7;4
55043;PMS5003;54902;50.420;18.854;2023-05-07T00:41:11;7;7;4
55043;PMS5003;54902;50.420;18.854;2023-05-07T00:41:42;7;7;4
55043;PMS5003;54902;50.420;18.854;2023-05-07T00:42:13;7;7;4
55043;PMS5003;54902;50.420;18.854;2023-05-07T00:42:46;7;7;4
55043;PMS5003;54902;50.420;18.854;2023-05-07T00:43:19;7;7;4
55043;PMS5003;54902;50.420;18.854;2023-05-07T00:43:50;7;7;4
55043;PMS5003;54902;50.420;18.854;2023-05-07T00:44:22;7;7;4
55043;PMS5003;54902;50.420;18.854;2023-05-07T00:44:53;7;7;4
55043;PMS5003;54902;50.420;18.854;2023-05-07T00:45:28;7;7;4
55043;PMS5003;54902;50.420;18.854;2023-05-07T00:45:59;7;7;4
55043;PMS5003;54902;50.420;18.854;2023-05-07T00:46:31;7;7;4
55043;PMS5003;54902;50.420;18.854;2023-05-07T00:47:03;7;7;4
55043;PMS5003;54902;50.420;18.854;2023-05-07T00:47:35;7;7;4
55043;PMS5003;54902;50.420;18.854;2023-05-07T00:48:07;7;7;4
55043;PMS5003;54902;50.420;18.854;2023-05-07T00:48:38;7;7;4
55043;PMS5003;54902;50.420;18.854;2023-05-07T00:49:09;7;7;4
55043;PMS5003;54902;50.420;18.854;2023-05-07T00:49:43;7;7;4
55043;PMS5003;54902;50.420;18.854;2023-05-07T00:50:16;7;7;4
55043;PMS5003;54902;50.420;18.854;2023-05-07T00:50:49;7;7;4
55043;PMS5003;54902;50.420;18.854;2023-05-07T00:51:20;7;7;4
55043;PMS5003;54902;50.420;18.854;2023-05-07T00:51:51;7;7;4
55043;PMS5003;54902;50.420;18.854;2023-05-07T00:52:22;7;7;4
55043;PMS5003;54902;50.420;18.854;2023-05-07T00:52:56;7;7;4
55043;PMS5003;54902;50.420;18.854;2023-05-07T00:53:27;7;7;4
55043;PMS5003;54902;50.420;18.854;2023-05-07T00:53:59;7;7;4
55043;PMS5003;54902;50.420;18.854;2023-05-07T00:54:32;7;7;4
55043;PMS5003;54902;50.420;18.854;2023-05-07T00:55:05;7;7;4
55043;PMS5003;54902;50.420;18.854;2023-05-07T00:55:38;6;6;4
55043;PMS5003;54902;50.420;18.854;2023-05-07T00:56:09;6;6;4
55043;PMS5003;54902;50.420;18.854;2023-05-07T00:56:40;11;11;8
55043;PMS5003;54902;50.420;18.854;2023-05-07T00:57:11;11;11;8
55043;PMS5003;54902;50.420;18.854;2023-05-07T00:57:42;11;11;8
55043;PMS5003;54902;50.420;18.854;2023-05-07T00:58:16;11;11;8
55043;PMS5003;54902;50.420;18.854;2023-05-07T00:58:48;11;11;8
55043;PMS5003;54902;50.420;18.854;2023-05-07T00:59:19;11;11;8
55043;PMS5003;54902;50.420;18.854;2023-05-07T00:59:51;11;11;8
55043;PMS5003;54902;50.420;18.854;2023-05-07T01:00:22;11;11;8
55043;PMS5003;54902;50.420;18.854;2023-05-07T01:00:55;11;11;8
55043;PMS5003;54902;50.420;18.854;2023-05-07T01:01:26;11;11;8
55043;PMS5003;54902;50.420;18.854;2023-05-07T01:01:57;19;19;13
55043;PMS5003;54902;50.420;18.854;2023-05-07T01:02:28;19;19;13
55043;PMS5003;54902;50.420;18.854;2023-05-07T01:02:59;19;19;13
55043;PMS5003;54902;50.420;18.854;2023-05-07T01:03:30;19;19;13
55043;PMS5003;54902;50.420;18.854;2023-05-07T01:04:01;19;19;13
55043;PMS5003;54902;50.420;18.854;2023-05-07T01:04:32;19;19;13
55043;PMS5003;54902;50.420;18.854;2023-05-07T01:05:04;19;19;13
55043;PMS5003;54902;50.420;18.854;2023-05-07T01:05:39;14;14;10
55043;PMS5003;54902;50.420;18.854;2023-05-07T01:06:11;14;14;10
55043;PMS5003;54902;50.420;18.854;2023-05-07T01:06:43;14;14;10
55043;PMS5003;54902;50.420;18.854;2023-05-07T01:07:15;13;12;8
55043;PMS5003;54902;50.420;18.854;2023-05-07T01:07:47;13;12;8
55043;PMS5003;54902;50.420;18.854;2023-05-07T01:08:19;13;12;8
55043;PMS5003;54902;50.420;18.854;2023-05-07T01:08:52;13;12;8
55043;PMS5003;54902;50.420;18.854;2023-05-07T01:09:27;13;12;8
55043;PMS5003;54902;50.420;18.854;2023-05-07T01:09:59;13;12;8
55043;PMS5003;54902;50.420;18.854;2023-05-07T01:10:31;13;12;8
55043;PMS5003;54902;50.420;18.854;2023-05-07T01:11:02;13;12;8
55043;PMS5003;54902;50.420;18.854;2023-05-07T01:11:33;13;12;8
55043;PMS5003;54902;50.420;18.854;2023-05-07T01:12:04;13;12;8
55043;PMS5003;54902;50.420;18.854;2023-05-07T01:12:37;17;16;11
55043;PMS5003;54902;50.420;18.854;2023-05-07T01:13:11;17;16;11
55043;PMS5003;54902;50.420;18.854;2023-05-07T01:13:43;17;16;11
55043;PMS5003;54902;50.420;18.854;2023-05-07T01:14:14;17;16;11
55043;PMS5003;54902;50.420;18.854;2023-05-07T01:14:46;17;16;11
55043;PMS5003;54902;50.420;18.854;2023-05-07T01:15:20;17;16;11
55043;PMS5003;54902;50.420;18.854;2023-05-07T01:15:51;17;16;11
55043;PMS5003;54902;50.420;18.854;2023-05-07T01:16:22;17;16;11
55043;PMS5003;54902;50.420;18.854;2023-05-07T01:16:53;17;16;11
55043;PMS5003;54902;50.420;18.854;2023-05-07T01:17:24;17;16;11
55043;PMS5003;54902;50.420;18.854;2023-05-07T01:17:55;9;9;7
55043;PMS5003;54902;50.420;18.854;2023-05-07T01:18:27;9;9;7
55043;PMS5003;54902;50.420;18.854;2023-05-07T01:19:00;9;9;7
55043;PMS5003;54902;50.420;18.854;2023-05-07T01:19:31;9;9;7
55043;PMS5003;54902;50.420;18.854;2023-05-07T01:20:03;9;9;7
55043;PMS5003;54902;50.420;18.854;2023-05-07T01:20:35;9;9;7
55043;PMS5003;54902;50.420;18.854;2023-05-07T01:21:06;9;9;7
55043;PMS5003;54902;50.420;18.854;2023-05-07T01:21:39;9;9;7
55043;PMS5003;54902;50.420;18.854;2023-05-07T01:22:23;9;9;7
55043;PMS5003;54902;50.420;18.854;2023-05-07T01:22:58;9;9;7
55043;PMS5003;54902;50.420;18.854;2023-05-07T01:23:31;16;16;11
55043;PMS5003;54902;50.420;18.854;2023-05-07T01:24:04;16;16;11
55043;PMS5003;54902;50.420;18.854;2023-05-07T01:24:36;16;16;11
55043;PMS5003;54902;50.420;18.854;2023-05-07T01:25:08;10;10;8
55043;PMS5003;54902;50.420;18.854;2023-05-07T01:25:39;10;10;8
55043;PMS5003;54902;50.420;18.854;2023-05-07T01:26:10;10;10;8
55043;PMS5003;54902;50.420;18.854;2023-05-07T01:26:41;10;10;8
55043;PMS5003;54902;50.420;18.854;2023-05-07T01:27:14;10;10;8
55043;PMS5003;54902;50.420;18.854;2023-05-07T01:27:45;10;10;8
55043;PMS5003;54902;50.420;18.854;2023-05-07T01:28:17;10;10;8
55043;PMS5003;54902;50.420;18.854;2023-05-07T01:28:47;12;12;11
55043;PMS5003;54902;50.420;18.854;2023-05-07T01:29:18;12;12;11
55043;PMS5003;54902;50.420;18.854;2023-05-07T01:29:49;12;12;11
55043;PMS5003;54902;50.420;18.854;2023-05-07T01:30:20;12;12;11
55043;PMS5003;54902;50.420;18.854;2023-05-07T01:30:54;12;12;11
55043;PMS5003;54902;50.420;18.854;2023-05-07T01:31:28;12;12;11
55043;PMS5003;54902;50.420;18.854;2023-05-07T01:32:00;12;12;11
55043;PMS5003;54902;50.420;18.854;2023-05-07T01:32:33;12;12;11
55043;PMS5003;54902;50.420;18.854;2023-05-07T01:33:14;12;12;11
55043;PMS5003;54902;50.420;18.854;2023-05-07T01:33:48;11;11;10
55043;PMS5003;54902;50.420;18.854;2023-05-07T01:34:22;9;9;7
55043;PMS5003;54902;50.420;18.854;2023-05-07T01:34:56;9;9;7
55043;PMS5003;54902;50.420;18.854;2023-05-07T01:35:30;9;9;7
55043;PMS5003;54902;50.420;18.854;2023-05-07T01:36:06;9;9;7
55043;PMS5003;54902;50.420;18.854;2023-05-07T01:36:39;9;9;7
55043;PMS5003;54902;50.420;18.854;2023-05-07T01:37:12;9;9;7
55043;PMS5003;54902;50.420;18.854;2023-05-07T01:37:44;9;9;7
55043;PMS5003;54902;50.420;18.854;2023-05-07T01:38:17;9;9;7
55043;PMS5003;54902;50.420;18.854;2023-05-07T01:38:49;9;9;7
55043;PMS5003;54902;50.420;18.854;2023-05-07T01:39:22;9;9;7
55043;PMS5003;54902;50.420;18.854;2023-05-07T01:39:57;16;16;10
55043;PMS5003;54902;50.420;18.854;2023-05-07T01:40:29;16;16;10
55043;PMS5003;54902;50.420;18.854;2023-05-07T01:41:00;16;16;10
55043;PMS5003;54902;50.420;18.854;2023-05-07T01:41:32;16;16;10
55043;PMS5003;54902;50.420;18.854;2023-05-07T01:42:03;16;16;10
55043;PMS5003;54902;50.420;18.854;2023-05-07T01:42:34;16;16;10
55043;PMS5003;54902;50.420;18.854;2023-05-07T01:43:06;16;16;10
55043;PMS5003;54902;50.420;18.854;2023-05-07T01:43:37;16;16;10
55043;PMS5003;54902;50.420;18.854;2023-05-07T01:44:08;16;16;10
55043;PMS5003;54902;50.420;18.854;2023-05-07T01:44:43;16;16;10
55043;PMS5003;54902;50.420;18.854;2023-05-07T01:45:14;16;16;10
55043;PMS5003;54902;50.420;18.854;2023-05-07T01:45:45;16;16;10
55043;PMS5003;54902;50.420;18.854;2023-05-07T01:46:19;16;16;10
55043;PMS5003;54902;50.420;18.854;2023-05-07T01:46:51;16;16;10
55043;PMS5003;54902;50.420;18.854;2023-05-07T01:47:22;16;16;10
55043;PMS5003;54902;50.420;18.854;2023-05-07T01:47:55;16;16;10
55043;PMS5003;54902;50.420;18.854;2023-05-07T01:48:28;16;16;10
55043;PMS5003;54902;50.420;18.854;2023-05-07T01:48:59;16;16;10
55043;PMS5003;54902;50.420;18.854;2023-05-07T01:49:30;16;16;10
55043;PMS5003;54902;50.420;18.854;2023-05-07T01:50:01;16;16;10
55043;PMS5003;54902;50.420;18.854;2023-05-07T01:50:32;16;16;10
55043;PMS5003;54902;50.420;18.854;2023-05-07T01:51:05;16;16;10
55043;PMS5003;54902;50.420;18.854;2023-05-07T01:51:36;16;16;10
55043;PMS5003;54902;50.420;18.854;2023-05-07T01:52:07;16;16;10
55043;PMS5003;54902;50.420;18.854;2023-05-07T01:52:40;16;16;10
55043;PMS5003;54902;50.420;18.854;2023-05-07T01:53:11;16;16;10
55043;PMS5003;54902;50.420;18.854;2023-05-07T01:53:41;16;16;10
55043;PMS5003;54902;50.420;18.854;2023-05-07T01:54:15;16;16;10
55043;PMS5003;54902;50.420;18.854;2023-05-07T01:54:47;16;16;10
55043;PMS5003;54902;50.420;18.854;2023-05-07T01:55:17;16;16;10
55043;PMS5003;54902;50.420;18.854;2023-05-07T01:55:49;16;16;10
55043;PMS5003;54902;50.420;18.854;2023-05-07T01:56:20;16;16;10
55043;PMS5003;54902;50.420;18.854;2023-05-07T01:56:51;16;16;10
55043;PMS5003;54902;50.420;18.854;2023-05-07T01:57:22;16;16;10
55043;PMS5003;54902;50.420;18.854;2023-05-07T01:57:53;16;16;10
55043;PMS5003;54902;50.420;18.854;2023-05-07T01:58:24;8;8;5
55043;PMS5003;54902;50.420;18.854;2023-05-07T01:58:54;8;8;5
55043;PMS5003;54902;50.420;18.854;2023-05-07T01:59:25;8;8;5
55043;PMS5003;54902;50.420;18.854;2023-05-07T01:59:56;8;8;5
55043;PMS5003;54902;50.420;18.854;2023-05-07T02:00:27;8;8;5
55043;PMS5003;54902;50.420;18.854;2023-05-07T02:00:59;3;3;3
55043;PMS5003;54902;50.420;18.854;2023-05-07T02:01:30;3;3;3
55043;PMS5003;54902;50.420;18.854;2023-05-07T02:02:01;3;3;3
55043;PMS5003;54902;50.420;18.854;2023-05-07T02:02:32;3;3;3
55043;PMS5003;54902;50.420;18.854;2023-05-07T02:03:03;3;3;3
55043;PMS5003;54902;50.420;18.854;2023-05-07T02:03:34;3;3;3
55043;PMS5003;54902;50.420;18.854;2023-05-07T02:04:06;3;3;3
55043;PMS5003;54902;50.420;18.854;2023-05-07T02:04:37;3;3;3
55043;PMS5003;54902;50.420;18.854;2023-05-07T02:05:08;3;3;3
55043;PMS5003;54902;50.420;18.854;2023-05-07T02:05:40;3;3;3
55043;PMS5003;54902;50.420;18.854;2023-05-07T02:06:11;4;4;4
55043;PMS5003;54902;50.420;18.854;2023-05-07T02:06:42;4;4;4
55043;PMS5003;54902;50.420;18.854;2023-05-07T02:07:13;4;4;4
55043;PMS5003;54902;50.420;18.854;2023-05-07T02:07:43;4;4;4
55043;PMS5003;54902;50.420;18.854;2023-05-07T02:08:14;4;4;4
55043;PMS5003;54902;50.420;18.854;2023-05-07T02:08:46;4;4;4
55043;PMS5003;54902;50.420;18.854;2023-05-07T02:09:18;4;4;4
55043;PMS5003;54902;50.420;18.854;2023-05-07T02:09:49;4;4;4
55043;PMS5003;54902;50.420;18.854;2023-05-07T02:10:21;4;4;4
55043;PMS5003;54902;50.420;18.854;2023-05-07T02:10:51;4;4;4
55043;PMS5003;54902;50.420;18.854;2023-05-07T02:11:24;4;4;4
55043;PMS5003;54902;50.420;18.854;2023-05-07T02:11:55;4;4;4
55043;PMS5003;54902;50.420;18.854;2023-05-07T02:12:26;4;4;4
55043;PMS5003;54902;50.420;18.854;2023-05-07T02:12:57;4;4;4
55043;PMS5003;54902;50.420;18.854;2023-05-07T02:13:32;4;4;4
55043;PMS5003;54902;50.420;18.854;2023-05-07T02:14:04;4;4;4
55043;PMS5003;54902;50.420;18.854;2023-05-07T02:14:36;4;4;4
55043;PMS5003;54902;50.420;18.854;2023-05-07T02:15:07;4;4;4
55043;PMS5003;54902;50.420;18.854;2023-05-07T02:15:38;3;3;3
55043;PMS5003;54902;50.420;18.854;2023-05-07T02:16:09;3;3;3
55043;PMS5003;54902;50.420;18.854;2023-05-07T02:16:41;1;1;1
55043;PMS5003;54902;50.420;18.854;2023-05-07T02:17:12;1;1;1
55043;PMS5003;54902;50.420;18.854;2023-05-07T02:18:26;1;1;1
55043;PMS5003;54902;50.420;18.854;2023-05-07T02:18:57;1;1;1
55043;PMS5003;54902;50.420;18.854;2023-05-07T02:19:28;1;1;1
55043;PMS5003;54902;50.420;18.854;2023-05-07T02:19:59;1;1;1
55043;PMS5003;54902;50.420;18.854;2023-05-07T02:20:30;1;1;1
55043;PMS5003;54902;50.420;18.854;2023-05-07T02:21:01;1;1;1
55043;PMS5003;54902;50.420;18.854;2023-05-07T02:21:32;1;1;1
55043;PMS5003;54902;50.420;18.854;2023-05-07T02:22:03;1;1;1
55043;PMS5003;54902;50.420;18.854;2023-05-07T02:22:34;1;1;1
55043;PMS5003;54902;50.420;18.854;2023-05-07T02:23:05;1;1;1
55043;PMS5003;54902;50.420;18.854;2023-05-07T02:23:36;1;1;1
55043;PMS5003;54902;50.420;18.854;2023-05-07T02:24:06;1;1;1
55043;PMS5003;54902;50.420;18.854;2023-05-07T02:24:38;1;1;1
55043;PMS5003;54902;50.420;18.854;2023-05-07T02:25:08;1;1;1
55043;PMS5003;54902;50.420;18.854;2023-05-07T02:25:39;1;1;1
55043;PMS5003;54902;50.420;18.854;2023-05-07T02:26:10;1;1;1
55043;PMS5003;54902;50.420;18.854;2023-05-07T02:26:41;1;1;1
55043;PMS5003;54902;50.420;18.854;2023-05-07T02:27:12;1;1;1
55043;PMS5003;54902;50.420;18.854;2023-05-07T02:27:43;1;1;1
55043;PMS5003;54902;50.420;18.854;2023-05-07T02:28:14;1;1;1
55043;PMS5003;54902;50.420;18.854;2023-05-07T02:28:45;1;1;1
55043;PMS5003;54902;50.420;18.854;2023-05-07T02:29:17;1;1;1
55043;PMS5003;54902;50.420;18.854;2023-05-07T02:29:48;1;1;1
55043;PMS5003;54902;50.420;18.854;2023-05-07T02:30:19;1;1;1
55043;PMS5003;54902;50.420;18.854;2023-05-07T02:30:52;1;1;1
55043;PMS5003;54902;50.420;18.854;2023-05-07T02:31:23;1;1;1
55043;PMS5003;54902;50.420;18.854;2023-05-07T02:31:54;1;1;1
55043;PMS5003;54902;50.420;18.854;2023-05-07T02:32:25;1;1;1
55043;PMS5003;54902;50.420;18.854;2023-05-07T02:32:56;1;1;1
55043;PMS5003;54902;50.420;18.854;2023-05-07T02:33:27;1;1;1
55043;PMS5003;54902;50.420;18.854;2023-05-07T02:33:58;1;1;1
55043;PMS5003;54902;50.420;18.854;2023-05-07T02:34:29;1;1;1
55043;PMS5003;54902;50.420;18.854;2023-05-07T02:35:00;1;1;1
55043;PMS5003;54902;50.420;18.854;2023-05-07T02:35:31;1;1;1
55043;PMS5003;54902;50.420;18.854;2023-05-07T02:36:40;1;1;1
55043;PMS5003;54902;50.420;18.854;2023-05-07T02:37:11;1;1;1
55043;PMS5003;54902;50.420;18.854;2023-05-07T02:37:42;1;1;1
55043;PMS5003;54902;50.420;18.854;2023-05-07T02:38:12;1;1;1
55043;PMS5003;54902;50.420;18.854;2023-05-07T02:38:43;1;1;1
55043;PMS5003;54902;50.420;18.854;2023-05-07T02:39:16;1;1;1
55043;PMS5003;54902;50.420;18.854;2023-05-07T02:39:47;1;1;1
55043;PMS5003;54902;50.420;18.854;2023-05-07T02:40:18;1;1;1
55043;PMS5003;54902;50.420;18.854;2023-05-07T02:40:49;1;1;1
55043;PMS5003;54902;50.420;18.854;2023-05-07T02:41:20;1;1;1
55043;PMS5003;54902;50.420;18.854;2023-05-07T02:41:51;1;1;1
55043;PMS5003;54902;50.420;18.854;2023-05-07T02:42:22;1;1;1
55043;PMS5003;54902;50.420;18.854;2023-05-07T02:42:53;3;3;3
55043;PMS5003;54902;50.420;18.854;2023-05-07T02:43:23;3;3;3
55043;PMS5003;54902;50.420;18.854;2023-05-07T02:43:55;3;3;3
55043;PMS5003;54902;50.420;18.854;2023-05-07T02:44:26;3;3;3
55043;PMS5003;54902;50.420;18.854;2023-05-07T02:44:57;3;3;3
55043;PMS5003;54902;50.420;18.854;2023-05-07T02:45:28;3;3;3
55043;PMS5003;54902;50.420;18.854;2023-05-07T02:46:36;3;3;3
55043;PMS5003;54902;50.420;18.854;2023-05-07T02:47:07;3;3;3
55043;PMS5003;54902;50.420;18.854;2023-05-07T02:47:40;3;3;3
55043;PMS5003;54902;50.420;18.854;2023-05-07T02:48:11;3;3;3
55043;PMS5003;54902;50.420;18.854;2023-05-07T02:48:42;3;3;3
55043;PMS5003;54902;50.420;18.854;2023-05-07T02:49:13;3;3;3
55043;PMS5003;54902;50.420;18.854;2023-05-07T02:49:44;3;3;3
55043;PMS5003;54902;50.420;18.854;2023-05-07T02:50:15;3;3;3
55043;PMS5003;54902;50.420;18.854;2023-05-07T02:50:46;3;3;3
55043;PMS5003;54902;50.420;18.854;2023-05-07T02:51:20;3;3;3
55043;PMS5003;54902;50.420;18.854;2023-05-07T02:51:52;3;3;3
55043;PMS5003;54902;50.420;18.854;2023-05-07T02:52:23;3;3;3
55043;PMS5003;54902;50.420;18.854;2023-05-07T02:52:54;3;3;3
55043;PMS5003;54902;50.420;18.854;2023-05-07T02:53:25;3;3;3
55043;PMS5003;54902;50.420;18.854;2023-05-07T02:53:57;3;3;3
55043;PMS5003;54902;50.420;18.854;2023-05-07T02:54:28;3;3;3
55043;PMS5003;54902;50.420;18.854;2023-05-07T02:54:59;3;3;3
55043;PMS5003;54902;50.420;18.854;2023-05-07T02:55:30;1;1;1
55043;PMS5003;54902;50.420;18.854;2023-05-07T02:56:01;1;1;1
55043;PMS5003;54902;50.420;18.854;2023-05-07T02:56:33;1;1;1
55043;PMS5003;54902;50.420;18.854;2023-05-07T02:57:04;1;1;1
55043;PMS5003;54902;50.420;18.854;2023-05-07T02:57:35;1;1;1
55043;PMS5003;54902;50.420;18.854;2023-05-07T02:58:06;1;1;1
55043;PMS5003;54902;50.420;18.854;2023-05-07T02:58:36;2;2;1
55043;PMS5003;54902;50.420;18.854;2023-05-07T02:59:09;2;2;1
55043;PMS5003;54902;50.420;18.854;2023-05-07T02:59:41;2;2;1
55043;PMS5003;54902;50.420;18.854;2023-05-07T03:00:50;2;2;1
55043;PMS5003;54902;50.420;18.854;2023-05-07T03:01:21;2;2;1
55043;PMS5003;54902;50.420;18.854;2023-05-07T03:01:52;2;2;1
55043;PMS5003;54902;50.420;18.854;2023-05-07T03:02:23;2;2;1
55043;PMS5003;54902;50.420;18.854;2023-05-07T03:02:55;2;2;1
55043;PMS5003;54902;50.420;18.854;2023-05-07T03:03:26;2;2;1
55043;PMS5003;54902;50.420;18.854;2023-05-07T03:03:57;3;3;2
55043;PMS5003;54902;50.420;18.854;2023-05-07T03:04:28;3;3;2
55043;PMS5003;54902;50.420;18.854;2023-05-07T03:04:59;3;3;2
55043;PMS5003;54902;50.420;18.854;2023-05-07T03:05:29;3;3;2
55043;PMS5003;54902;50.420;18.854;2023-05-07T03:06:00;3;3;2
55043;PMS5003;54902;50.420;18.854;2023-05-07T03:06:31;3;3;2
55043;PMS5003;54902;50.420;18.854;2023-05-07T03:07:02;3;3;2
55043;PMS5003;54902;50.420;18.854;2023-05-07T03:07:34;3;3;2
55043;PMS5003;54902;50.420;18.854;2023-05-07T03:08:05;3;3;2
55043;PMS5003;54902;50.420;18.854;2023-05-07T03:08:37;3;3;2
55043;PMS5003;54902;50.420;18.854;2023-05-07T03:09:08;0;0;0
55043;PMS5003;54902;50.420;18.854;2023-05-07T03:09:39;0;0;0
55043;PMS5003;54902;50.420;18.854;2023-05-07T03:10:10;0;0;0
55043;PMS5003;54902;50.420;18.854;2023-05-07T03:10:41;0;0;0
55043;PMS5003;54902;50.420;18.854;2023-05-07T03:11:12;0;0;0
55043;PMS5003;54902;50.420;18.854;2023-05-07T03:11:43;0;0;0
55043;PMS5003;54902;50.420;18.854;2023-05-07T03:12:14;0;0;0
55043;PMS5003;54902;50.420;18.854;2023-05-07T03:12:45;0;0;0
55043;PMS5003;54902;50.420;18.854;2023-05-07T03:13:16;0;0;0
55043;PMS5003;54902;50.420;18.854;2023-05-07T03:13:47;0;0;0
55043;PMS5003;54902;50.420;18.854;2023-05-07T03:14:20;1;1;0
55043;PMS5003;54902;50.420;18.854;2023-05-07T03:14:51;1;1;0
55043;PMS5003;54902;50.420;18.854;2023-05-07T03:15:22;1;1;0
55043;PMS5003;54902;50.420;18.854;2023-05-07T03:15:53;1;1;0
55043;PMS5003;54902;50.420;18.854;2023-05-07T03:16:24;1;1;0
55043;PMS5003;54902;50.420;18.854;2023-05-07T03:16:56;1;1;0
55043;PMS5003;54902;50.420;18.854;2023-05-07T03:17:26;1;1;0
55043;PMS5003;54902;50.420;18.854;2023-05-07T03:17:57;1;1;0
55043;PMS5003;54902;50.420;18.854;2023-05-07T03:18:28;1;1;0
55043;PMS5003;54902;50.420;18.854;2023-05-07T03:18:59;1;1;0
55043;PMS5003;54902;50.420;18.854;2023-05-07T03:19:30;1;1;0
55043;PMS5003;54902;50.420;18.854;2023-05-07T03:20:01;1;1;0
55043;PMS5003;54902;50.420;18.854;2023-05-07T03:20:32;1;1;0
55043;PMS5003;54902;50.420;18.854;2023-05-07T03:21:03;1;1;0
55043;PMS5003;54902;50.420;18.854;2023-05-07T03:21:34;1;1;0
55043;PMS5003;54902;50.420;18.854;2023-05-07T03:22:05;1;1;0
55043;PMS5003;54902;50.420;18.854;2023-05-07T03:22:36;1;1;0
55043;PMS5003;54902;50.420;18.854;2023-05-07T03:23:07;1;1;0
55043;PMS5003;54902;50.420;18.854;2023-05-07T03:23:38;0;0;0
55043;PMS5003;54902;50.420;18.854;2023-05-07T03:24:09;0;0;0
55043;PMS5003;54902;50.420;18.854;2023-05-07T03:24:40;0;0;0
55043;PMS5003;54902;50.420;18.854;2023-05-07T03:25:11;0;0;0
55043;PMS5003;54902;50.420;18.854;2023-05-07T03:25:42;0;0;0
55043;PMS5003;54902;50.420;18.854;2023-05-07T03:26:13;0;0;0
55043;PMS5003;54902;50.420;18.854;2023-05-07T03:26:45;0;0;0
55043;PMS5003;54902;50.420;18.854;2023-05-07T03:27:16;0;0;0
55043;PMS5003;54902;50.420;18.854;2023-05-07T03:27:46;0;0;0
55043;PMS5003;54902;50.420;18.854;2023-05-07T03:28:17;0;0;0